Terminal Aerodrome Forecast
Issued by NWS

Home | Current Version | Previous Version | Text Only | Print | Product List | Glossary On
Versions: 1 2 3 4 5 6 7 8 9 10 11 12 13 14 15 16 17 18 19 20 21 22 23 24 25 26 27 28 29 30 31 32 33 34 35 36 37 38 39 40 41 42
000
FTUS43 KMKX 300245 AAA
TAFUES
TAF AMD
KUES 300245Z 3003/3024 00000KT 4SM BR OVC003
     FM300600 00000KT 1 1/2SM BR OVC003
     FM301400 00000KT 3SM BR OVC006
     FM301600 00000KT 5SM BR SCT009 SCT015
     FM301700 00000KT P6SM SCT020
     FM302000 19004KT P6SM SCT140=

USA.gov is the U.S. government's official web portal to all federal, state and local government web resources and services.